Time;durP1;ratioP1;P1;durP2;ratioP2;P2;SDS_P1;SDS_P2;PMS_P1;PMS_P2;Temp;Humidity;BMP_temperature;BMP_pressure;BME280_temperature;BME280_humidity;BME280_pressure;Samples;Min_cycle;Max_cycle;Signal;HPM_P1;HPM_P2
2024/01/21 00:01:19;;;;;;;17.77;16.33;;;-4.10;99.90;;;;;;5017766;28;20247;-39
2024/01/21 00:03:44;;;;;;;18.10;16.40;;;-4.10;99.90;;;;;;5006676;28;20226;-38
2024/01/21 00:06:10;;;;;;;17.63;16.00;;;-4.20;87.60;;;;;;5011584;28;20612;-39
2024/01/21 00:08:36;;;;;;;17.83;16.07;;;-4.20;1.00;;;;;;5020894;28;20214;-39
2024/01/21 00:11:01;;;;;;;17.73;15.80;;;-4.20;14.80;;;;;;5006919;28;20222;-40
2024/01/21 00:13:28;;;;;;;18.83;17.13;;;-4.20;4.10;;;;;;5012735;28;20704;-40
2024/01/21 00:15:53;;;;;;;18.15;16.75;;;-4.20;99.90;;;;;;5012153;28;20207;-40
2024/01/21 00:18:19;;;;;;;17.10;15.60;;;-4.30;99.90;;;;;;5015703;28;20192;-38
2024/01/21 00:20:45;;;;;;;17.80;16.03;;;-4.20;1.00;;;;;;5021034;28;20226;-42
2024/01/21 00:23:10;;;;;;;17.43;16.13;;;-4.20;99.90;;;;;;5035269;28;20181;-39
2024/01/21 00:25:36;;;;;;;17.17;15.67;;;-4.30;99.90;;;;;;5033849;28;20190;-39
2024/01/21 00:28:02;;;;;;;17.57;15.83;;;-4.30;1.00;;;;;;5030963;28;20714;-39
2024/01/21 00:30:27;;;;;;;20.83;18.87;;;-4.30;8.90;;;;;;5031582;28;20544;-40
2024/01/21 00:32:53;;;;;;;18.90;17.20;;;-4.40;99.90;;;;;;5024674;28;21850;-39
2024/01/21 00:35:18;;;;;;;19.67;17.80;;;-4.40;99.90;;;;;;5024729;28;20187;-40
2024/01/21 00:37:44;;;;;;;18.20;16.40;;;-4.40;99.90;;;;;;5032545;28;20182;-48
2024/01/21 00:40:10;;;;;;;18.90;17.20;;;-4.40;1.00;;;;;;5034884;28;20186;-41
2024/01/21 00:42:36;;;;;;;18.93;17.07;;;-4.40;1.00;;;;;;5033928;28;20185;-40
2024/01/21 00:45:02;;;;;;;18.73;16.98;;;-4.40;1.00;;;;;;5034301;28;20806;-39
2024/01/21 00:47:28;;;;;;;18.67;17.13;;;-4.40;1.00;;;;;;5034265;28;20263;-39
2024/01/21 00:49:53;;;;;;;18.57;16.90;;;-4.40;1.00;;;;;;5023096;28;20293;-40
2024/01/21 00:52:19;;;;;;;19.27;17.40;;;-4.40;1.00;;;;;;5023339;28;20175;-43
2024/01/21 00:54:45;;;;;;;18.80;17.00;;;-4.40;1.00;;;;;;5037996;28;20213;-39
2024/01/21 00:57:10;;;;;;;18.60;17.00;;;-4.40;1.00;;;;;;5023037;28;20193;-40
2024/01/21 00:59:36;;;;;;;18.37;16.83;;;-4.40;1.00;;;;;;5028471;28;20190;-39
2024/01/21 01:02:01;;;;;;;19.00;17.47;;;-4.50;1.00;;;;;;5024653;28;20190;-44
2024/01/21 01:04:27;;;;;;;17.90;16.20;;;-4.40;1.00;;;;;;5022991;28;20979;-42
2024/01/21 01:06:53;;;;;;;19.07;17.17;;;-4.50;1.00;;;;;;5022515;28;20214;-39
2024/01/21 01:09:18;;;;;;;20.20;18.13;;;-4.50;1.00;;;;;;5019369;28;20232;-40
2024/01/21 01:11:44;;;;;;;19.80;18.00;;;-4.60;1.00;;;;;;5028111;28;20182;-39
2024/01/21 01:14:09;;;;;;;18.90;17.10;;;-4.60;1.00;;;;;;5024547;28;20190;-40
2024/01/21 01:16:39;;;;;;;19.77;18.07;;;-4.60;1.00;;;;;;5033244;28;20746;-40
2024/01/21 01:19:08;;;;;;;18.40;16.73;;;-4.60;1.00;;;;;;5033544;28;20771;-43
2024/01/21 01:21:34;;;;;;;20.85;18.67;;;-4.60;1.00;;;;;;5020758;28;20228;-38
2024/01/21 01:24:00;;;;;;;18.90;17.10;;;-4.70;1.00;;;;;;5020992;28;20190;-39
2024/01/21 01:26:26;;;;;;;19.38;17.65;;;-4.60;1.00;;;;;;5019439;28;20195;-42
2024/01/21 01:28:52;;;;;;;21.07;18.17;;;-4.60;1.00;;;;;;5021260;28;20206;-45
2024/01/21 01:31:18;;;;;;;21.97;20.00;;;-4.70;1.00;;;;;;5021675;28;20186;-40
2024/01/21 01:33:44;;;;;;;17.95;16.38;;;-4.70;1.00;;;;;;5021342;28;20599;-39
2024/01/21 01:36:10;;;;;;;19.37;17.57;;;-4.70;99.90;;;;;;5020661;28;20175;-39
2024/01/21 01:38:36;;;;;;;21.67;17.60;;;-4.70;99.90;;;;;;5022362;28;21096;-40
2024/01/21 01:41:01;;;;;;;19.40;17.60;;;-4.70;99.90;;;;;;5021795;28;20321;-40
2024/01/21 01:43:27;;;;;;;22.07;17.80;;;-4.70;99.90;;;;;;5021189;28;20193;-39
2024/01/21 01:45:53;;;;;;;20.53;18.43;;;-4.70;99.90;;;;;;5021320;28;20190;-40
2024/01/21 01:48:19;;;;;;;18.43;16.80;;;-4.70;99.90;;;;;;5021110;28;20206;-40
2024/01/21 01:50:46;;;;;;;18.45;16.90;;;-4.70;99.90;;;;;;5021546;28;20209;-39
2024/01/21 01:53:12;;;;;;;20.27;18.27;;;-4.70;72.60;;;;;;5020550;28;20198;-39
2024/01/21 01:55:37;;;;;;;20.27;18.10;;;-4.80;1.00;;;;;;5021001;28;21062;-40
2024/01/21 01:58:03;;;;;;;19.23;17.53;;;-4.80;1.00;;;;;;5021401;28;20428;-39
2024/01/21 02:00:29;;;;;;;20.38;18.27;;;-4.80;1.00;;;;;;5021895;28;20179;-41
2024/01/21 02:02:56;;;;;;;19.45;17.55;;;-4.80;1.00;;;;;;5021690;28;20579;-40
2024/01/21 02:05:21;;;;;;;20.38;18.38;;;-4.80;1.00;;;;;;5021285;28;20657;-40
2024/01/21 02:07:47;;;;;;;20.10;17.57;;;-4.80;1.00;;;;;;5020146;28;20186;-40
2024/01/21 02:10:13;;;;;;;20.47;18.53;;;-4.80;1.00;;;;;;5021122;28;20738;-39
2024/01/21 02:12:44;;;;;;;19.53;17.67;;;-4.90;1.00;;;;;;5020679;28;20178;-39
2024/01/21 02:15:12;;;;;;;20.33;18.48;;;-4.90;1.00;;;;;;5021178;28;20217;-39
2024/01/21 02:17:37;;;;;;;21.52;18.58;;;-4.90;1.00;;;;;;5020604;28;20171;-56
2024/01/21 02:20:03;;;;;;;19.77;17.87;;;-4.90;1.00;;;;;;5020250;28;20802;-54
2024/01/21 02:22:30;;;;;;;20.02;17.95;;;-4.90;1.00;;;;;;5020009;28;20444;-57
2024/01/21 02:24:56;;;;;;;20.60;18.48;;;-4.90;1.00;;;;;;5020598;28;20317;-39
2024/01/21 02:27:22;;;;;;;21.93;17.80;;;-4.90;99.90;;;;;;5020199;28;20684;-40
2024/01/21 02:29:47;;;;;;;19.43;17.47;;;-4.90;99.90;;;;;;5020725;28;20210;-39
2024/01/21 02:32:13;;;;;;;18.60;16.70;;;-4.90;1.00;;;;;;5019868;28;20193;-39
2024/01/21 02:34:38;;;;;;;25.03;18.50;;;-4.90;99.90;;;;;;5019841;28;20278;-40
2024/01/21 02:37:04;;;;;;;20.77;18.77;;;-5.00;99.90;;;;;;5019979;28;20293;-39
2024/01/21 02:39:29;;;;;;;19.97;18.00;;;-5.00;99.90;;;;;;5020550;28;20190;-40
2024/01/21 02:41:55;;;;;;;19.77;17.90;;;-5.00;99.90;;;;;;5020684;28;20293;-54
2024/01/21 02:44:21;;;;;;;21.37;18.40;;;-5.00;99.90;;;;;;5020361;28;20194;-57
2024/01/21 02:46:46;;;;;;;19.17;17.17;;;-5.00;99.90;;;;;;5019672;28;20186;-57
2024/01/21 02:49:12;;;;;;;18.90;17.10;;;-5.00;1.00;;;;;;5020548;28;20648;-55
2024/01/21 02:51:37;;;;;;;20.20;18.20;;;-5.00;1.00;;;;;;5002732;28;20194;-50
2024/01/21 02:54:03;;;;;;;20.60;18.23;;;-5.00;99.90;;;;;;5020258;28;20178;-57
2024/01/21 02:56:28;;;;;;;20.17;18.17;;;-5.10;99.90;;;;;;5020198;28;20244;-57
2024/01/21 02:58:54;;;;;;;21.20;18.80;;;-5.10;1.00;;;;;;5020366;28;20206;-52
2024/01/21 03:01:20;;;;;;;18.73;17.10;;;-5.10;1.00;;;;;;5020687;28;20186;-52
2024/01/21 03:03:46;;;;;;;22.25;19.90;;;-5.20;1.00;;;;;;5020036;28;20210;-57
2024/01/21 03:06:50;;;;;;;21.13;19.10;;;-5.20;1.00;;;;;;5020191;28;20298;-53
2024/01/21 03:09:16;;;;;;;21.10;18.10;;;-5.20;1.00;;;;;;5020020;28;20210;-52
2024/01/21 03:11:42;;;;;;;20.70;18.80;;;-5.30;1.00;;;;;;5020567;28;20181;-57
2024/01/21 03:14:07;;;;;;;18.93;17.27;;;-5.30;99.90;;;;;;5020368;28;20761;-54
2024/01/21 03:16:33;;;;;;;22.33;18.53;;;-5.30;99.90;;;;;;5019815;28;20178;-52
2024/01/21 03:18:59;;;;;;;19.45;17.83;;;-5.30;99.90;;;;;;5017634;28;20235;-57
2024/01/21 03:21:24;;;;;;;19.43;17.63;;;-5.30;99.90;;;;;;5009736;28;20198;-56
2024/01/21 03:23:50;;;;;;;18.90;17.10;;;-5.40;99.90;;;;;;5014389;28;20928;-54
2024/01/21 03:26:16;;;;;;;19.57;17.90;;;-5.40;1.00;;;;;;5015146;28;20211;-57
2024/01/21 03:28:42;;;;;;;20.17;18.42;;;-5.40;99.90;;;;;;5016761;28;20254;-55
2024/01/21 03:31:08;;;;;;;18.00;16.40;;;-5.40;99.90;;;;;;5017726;28;20268;-55
2024/01/21 03:33:33;;;;;;;20.77;16.77;;;-5.30;99.90;;;;;;5002204;28;20725;-54
2024/01/21 03:36:01;;;;;;;19.40;17.40;;;-5.30;1.00;;;;;;5009963;28;20205;-58
2024/01/21 03:38:26;;;;;;;18.80;17.10;;;-5.30;1.00;;;;;;5007287;28;20193;-56
2024/01/21 03:40:52;;;;;;;19.67;17.77;;;-5.30;1.00;;;;;;5012549;28;20191;-56
2024/01/21 03:43:18;;;;;;;19.97;17.97;;;-5.30;99.90;;;;;;5018630;28;20205;-58
2024/01/21 03:45:43;;;;;;;20.10;18.10;;;-5.30;13.60;;;;;;5003775;28;20202;-40
2024/01/21 03:48:09;;;;;;;19.27;17.60;;;-5.30;1.00;;;;;;5017397;28;20245;-40
2024/01/21 03:50:35;;;;;;;20.27;18.37;;;-5.30;1.00;;;;;;5005955;28;20514;-43
2024/01/21 03:53:00;;;;;;;21.00;19.03;;;-5.30;99.90;;;;;;5015719;28;20726;-40
2024/01/21 03:55:26;;;;;;;18.20;16.53;;;-5.30;27.30;;;;;;5016991;28;20190;-39
2024/01/21 03:57:51;;;;;;;20.80;18.77;;;-5.20;1.00;;;;;;5020685;28;20574;-40
2024/01/21 04:00:17;;;;;;;20.80;18.73;;;-5.30;99.90;;;;;;5014433;28;20178;-39
2024/01/21 04:02:43;;;;;;;18.93;17.23;;;-5.20;99.90;;;;;;5022040;28;20210;-39
2024/01/21 04:05:08;;;;;;;20.97;18.87;;;-5.20;99.90;;;;;;5009609;28;20297;-40
2024/01/21 04:07:34;;;;;;;20.83;18.73;;;-5.20;1.00;;;;;;5013031;28;20210;-40
2024/01/21 04:10:00;;;;;;;19.57;17.57;;;-5.20;1.00;;;;;;5014299;28;20221;-40
2024/01/21 04:12:26;;;;;;;19.10;17.50;;;-5.20;1.00;;;;;;5014013;28;20198;-39
2024/01/21 04:14:51;;;;;;;20.60;18.77;;;-5.20;99.90;;;;;;5010604;28;20461;-40
2024/01/21 04:17:17;;;;;;;19.87;18.03;;;-5.20;99.90;;;;;;5007155;28;20217;-39
2024/01/21 04:19:43;;;;;;;21.73;19.53;;;-5.20;99.90;;;;;;5008881;28;20289;-41
2024/01/21 04:22:09;;;;;;;20.23;18.30;;;-5.20;99.90;;;;;;5017956;28;20269;-39
2024/01/21 04:24:34;;;;;;;20.00;18.03;;;-5.10;99.90;;;;;;5017044;28;20210;-53
2024/01/21 04:27:00;;;;;;;19.27;17.37;;;-5.20;18.40;;;;;;5008633;28;20193;-56
2024/01/21 04:29:25;;;;;;;20.23;18.43;;;-5.10;1.00;;;;;;5012315;28;20218;-55
2024/01/21 04:31:51;;;;;;;19.97;17.90;;;-5.10;1.00;;;;;;5009290;28;20180;-57
2024/01/21 04:34:17;;;;;;;19.30;17.50;;;-5.10;1.00;;;;;;4993177;28;20183;-57
2024/01/21 04:36:43;;;;;;;19.63;17.67;;;-5.10;1.00;;;;;;5018818;28;20418;-54
2024/01/21 04:39:09;;;;;;;19.65;17.95;;;-5.10;1.00;;;;;;5013764;28;20186;-55
2024/01/21 04:41:35;;;;;;;17.40;15.93;;;-5.10;99.90;;;;;;5007063;28;20188;-50
2024/01/21 04:44:01;;;;;;;18.95;17.02;;;-5.10;99.90;;;;;;5020857;28;20727;-55
2024/01/21 04:46:26;;;;;;;21.88;18.95;;;-5.10;99.90;;;;;;5007180;28;20198;-53
2024/01/21 04:48:52;;;;;;;17.67;16.17;;;-5.10;99.90;;;;;;5008244;28;20210;-40
2024/01/21 04:51:18;;;;;;;18.67;16.73;;;-5.00;99.90;;;;;;5012119;28;20187;-39
2024/01/21 04:53:44;;;;;;;18.97;17.37;;;-5.00;99.90;;;;;;5005508;28;20183;-39
2024/01/21 04:56:16;;;;;;;18.80;16.88;;;-5.00;99.90;;;;;;5008343;28;20572;-39
2024/01/21 04:58:42;;;;;;;18.35;16.60;;;-5.00;6.10;;;;;;5016129;28;20607;-39
2024/01/21 05:01:07;;;;;;;19.00;17.47;;;-4.90;1.00;;;;;;5014410;28;20187;-39
2024/01/21 05:03:33;;;;;;;19.40;17.50;;;-4.80;1.00;;;;;;5016760;28;20197;-39
2024/01/21 05:05:59;;;;;;;19.10;16.87;;;-4.80;1.00;;;;;;5011474;28;20183;-39
2024/01/21 05:08:24;;;;;;;18.63;16.93;;;-4.80;1.00;;;;;;4999869;28;20221;-39
2024/01/21 05:10:50;;;;;;;17.83;16.33;;;-4.70;99.90;;;;;;5014174;28;20967;-39
2024/01/21 05:13:15;;;;;;;20.13;18.17;;;-4.70;99.90;;;;;;5007814;28;20259;-40
2024/01/21 05:15:41;;;;;;;17.33;15.80;;;-4.70;99.90;;;;;;5009483;28;20185;-40
2024/01/21 05:18:07;;;;;;;19.23;17.53;;;-4.60;99.90;;;;;;5011315;28;20249;-40
2024/01/21 05:20:32;;;;;;;15.77;14.57;;;-4.50;99.90;;;;;;5019076;28;20237;-42
2024/01/21 05:22:59;;;;;;;17.27;15.77;;;-4.50;99.90;;;;;;5019273;28;20220;-39
2024/01/21 05:25:25;;;;;;;17.92;16.23;;;-4.40;99.90;;;;;;5021811;28;20182;-40
2024/01/21 05:27:50;;;;;;;17.20;15.70;;;-4.30;3.60;;;;;;5022220;28;20210;-40
2024/01/21 05:30:16;;;;;;;18.67;16.93;;;-4.30;1.00;;;;;;5003254;28;20202;-41
2024/01/21 05:32:46;;;;;;;17.83;16.20;;;-4.30;1.00;;;;;;5021984;28;20915;-41
2024/01/21 05:35:12;;;;;;;17.52;15.77;;;-4.30;1.00;;;;;;5021618;28;20171;-40
2024/01/21 05:37:38;;;;;;;16.70;15.40;;;-4.30;1.00;;;;;;5022040;28;20175;-40
2024/01/21 05:40:04;;;;;;;18.97;17.17;;;-4.20;1.00;;;;;;5021128;28;20680;-41
2024/01/21 05:42:30;;;;;;;16.27;14.77;;;-4.20;1.00;;;;;;5021266;28;20256;-40
2024/01/21 05:44:56;;;;;;;16.97;15.67;;;-4.20;1.00;;;;;;5022552;28;20228;-40
2024/01/21 05:47:21;;;;;;;18.27;16.47;;;-4.10;1.00;;;;;;5021627;28;20202;-41
2024/01/21 05:49:47;;;;;;;17.60;16.20;;;-4.00;1.00;;;;;;5021762;28;20687;-41
2024/01/21 05:52:12;;;;;;;18.03;16.37;;;-3.80;1.00;;;;;;5020844;28;20193;-40
2024/01/21 05:54:39;;;;;;;17.40;15.80;;;-3.80;1.00;;;;;;5021588;28;20189;-40
2024/01/21 05:57:05;;;;;;;18.67;17.17;;;-3.70;99.90;;;;;;5021726;28;20174;-40
2024/01/21 05:59:32;;;;;;;17.08;15.73;;;-3.70;99.90;;;;;;5020957;28;20197;-41
2024/01/21 06:01:57;;;;;;;16.67;15.48;;;-3.60;99.90;;;;;;5020374;28;20233;-46
2024/01/21 06:04:23;;;;;;;17.20;15.77;;;-3.50;99.90;;;;;;5022010;28;21197;-42
2024/01/21 06:06:49;;;;;;;17.10;15.45;;;-3.50;99.90;;;;;;5020797;28;20178;-40
2024/01/21 06:09:15;;;;;;;17.50;16.00;;;-3.40;99.90;;;;;;5021235;28;20686;-40
2024/01/21 06:11:41;;;;;;;16.47;15.30;;;-3.30;99.90;;;;;;5019374;28;20492;-40
2024/01/21 06:14:07;;;;;;;18.33;16.77;;;-3.30;99.90;;;;;;5003205;28;20422;-41
2024/01/21 06:16:33;;;;;;;17.60;15.95;;;-3.30;99.90;;;;;;5020147;28;20449;-41
2024/01/21 06:18:59;;;;;;;19.07;17.07;;;-3.20;99.90;;;;;;5020448;28;20222;-39
2024/01/21 06:21:24;;;;;;;17.20;15.60;;;-3.20;99.90;;;;;;5020435;28;20182;-40
2024/01/21 06:23:50;;;;;;;16.77;15.47;;;-3.20;99.90;;;;;;5020834;28;21170;-45
2024/01/21 06:26:17;;;;;;;16.70;15.27;;;-3.10;99.90;;;;;;5020765;28;20183;-39
2024/01/21 06:28:43;;;;;;;17.60;16.10;;;-3.10;99.90;;;;;;5020965;28;20569;-39
2024/01/21 06:31:09;;;;;;;17.43;16.03;;;-3.10;99.90;;;;;;4987228;28;20176;-40
2024/01/21 06:33:34;;;;;;;18.87;16.93;;;-3.10;99.90;;;;;;5020760;28;21033;-41
2024/01/21 06:36:00;;;;;;;18.20;16.73;;;-3.10;99.90;;;;;;5020840;28;20575;-41
2024/01/21 06:38:25;;;;;;;19.23;17.47;;;-3.10;98.10;;;;;;5019826;28;20198;-40
2024/01/21 06:40:52;;;;;;;18.00;16.00;;;-3.10;99.90;;;;;;5019470;28;20190;-39
2024/01/21 06:43:18;;;;;;;17.05;15.55;;;-3.00;99.90;;;;;;5019934;28;20177;-39
2024/01/21 06:45:44;;;;;;;16.43;15.20;;;-3.00;99.40;;;;;;5020578;28;20192;-40
2024/01/21 06:48:09;;;;;;;16.23;14.80;;;-2.90;86.10;;;;;;5020955;28;20211;-39
2024/01/21 06:50:35;;;;;;;17.43;16.00;;;-2.90;65.00;;;;;;5020410;28;20206;-38
2024/01/21 06:53:00;;;;;;;17.30;15.90;;;-2.90;51.90;;;;;;5020125;28;20241;-41
2024/01/21 06:55:26;;;;;;;17.60;15.93;;;-2.80;24.70;;;;;;5020596;28;20229;-39
2024/01/21 06:57:51;;;;;;;18.00;16.47;;;-2.80;1.00;;;;;;5002934;28;20249;-40
2024/01/21 07:00:18;;;;;;;18.00;16.27;;;-2.80;1.00;;;;;;5020147;28;20197;-38
2024/01/21 07:02:43;;;;;;;17.52;16.02;;;-2.70;1.00;;;;;;5020230;28;20649;-38
2024/01/21 07:05:09;;;;;;;18.07;16.40;;;-2.70;1.00;;;;;;5020273;28;20210;-39
2024/01/21 07:07:35;;;;;;;18.55;16.85;;;-2.70;1.00;;;;;;5020468;28;20195;-39
2024/01/21 07:10:01;;;;;;;17.60;16.27;;;-2.60;1.00;;;;;;5019746;28;20210;-39
2024/01/21 07:12:26;;;;;;;16.67;14.87;;;-2.60;1.00;;;;;;4995182;28;20189;-40
2024/01/21 07:14:52;;;;;;;16.90;15.60;;;-2.60;1.00;;;;;;5002855;28;20413;-39
2024/01/21 07:17:18;;;;;;;15.60;14.50;;;-2.50;1.00;;;;;;5020550;28;20173;-38
2024/01/21 07:19:44;;;;;;;17.63;16.17;;;-2.50;1.00;;;;;;5021470;28;20233;-40
2024/01/21 07:22:10;;;;;;;15.57;14.27;;;-2.40;1.00;;;;;;5022414;28;20190;-39
2024/01/21 07:24:35;;;;;;;15.87;14.47;;;-2.30;1.00;;;;;;5023346;28;20193;-38
2024/01/21 07:27:01;;;;;;;16.43;15.03;;;-2.20;1.00;;;;;;5024550;28;20192;-52
2024/01/21 07:29:27;;;;;;;18.55;16.88;;;-2.10;1.00;;;;;;5022577;28;20256;-56
2024/01/21 07:31:52;;;;;;;15.20;14.10;;;-2.10;1.00;;;;;;5022834;28;20570;-51
2024/01/21 07:34:18;;;;;;;15.50;14.30;;;-2.00;1.00;;;;;;5023061;28;20175;-53
2024/01/21 07:36:44;;;;;;;15.20;14.30;;;-1.90;1.00;;;;;;5022454;28;20266;-56
2024/01/21 07:39:11;;;;;;;15.87;14.27;;;-1.80;1.00;;;;;;5021790;28;20795;-50
2024/01/21 07:41:37;;;;;;;16.45;15.10;;;-1.70;1.00;;;;;;5021469;28;20931;-55
2024/01/21 07:44:02;;;;;;;16.97;15.77;;;-1.70;1.00;;;;;;5023597;28;20190;-56
2024/01/21 07:46:28;;;;;;;17.20;15.50;;;-1.60;1.00;;;;;;5005276;28;20192;-54
2024/01/21 07:48:54;;;;;;;17.90;16.23;;;-1.60;1.00;;;;;;5023598;28;20202;-56
2024/01/21 07:51:20;;;;;;;17.27;15.67;;;-1.50;1.00;;;;;;5023164;28;20444;-56
2024/01/21 07:53:46;;;;;;;17.90;16.50;;;-1.50;1.00;;;;;;5022769;28;20651;-56
2024/01/21 07:56:12;;;;;;;16.90;15.47;;;-1.40;1.00;;;;;;5023880;28;20424;-54
2024/01/21 07:58:38;;;;;;;16.90;15.40;;;-1.40;1.00;;;;;;5022954;28;20448;-55
2024/01/21 08:01:09;;;;;;;17.13;15.43;;;-1.30;1.00;;;;;;5022063;28;20194;-52
2024/01/21 08:03:35;;;;;;;16.85;15.55;;;-1.20;1.00;;;;;;5022746;28;20233;-51
2024/01/21 08:06:01;;;;;;;16.87;15.57;;;-1.20;1.00;;;;;;5023190;28;20186;-55
2024/01/21 08:08:26;;;;;;;16.70;15.30;;;-1.10;1.00;;;;;;5021895;28;20222;-55
2024/01/21 08:10:52;;;;;;;17.30;16.00;;;-1.00;1.00;;;;;;5022984;28;20182;-42
2024/01/21 08:13:17;;;;;;;15.43;14.03;;;-0.90;1.00;;;;;;5005908;28;20644;-39
2024/01/21 08:15:43;;;;;;;16.67;15.17;;;-0.90;1.00;;;;;;5023117;28;20210;-40
2024/01/21 08:18:09;;;;;;;17.77;15.97;;;-0.80;1.00;;;;;;5022568;28;20283;-40
2024/01/21 08:20:34;;;;;;;16.50;15.07;;;-0.60;1.00;;;;;;5016485;28;20226;-55
2024/01/21 08:23:01;;;;;;;16.87;15.40;;;-0.40;1.00;;;;;;5017819;28;20850;-53
2024/01/21 08:25:28;;;;;;;17.17;15.80;;;-0.20;1.00;;;;;;5011086;28;20186;-55
2024/01/21 08:27:53;;;;;;;17.17;15.48;;;0.20;1.00;;;;;;5007388;28;20235;-51
2024/01/21 08:30:19;;;;;;;17.40;16.10;;;0.60;1.00;;;;;;5010018;28;20266;-51
2024/01/21 08:32:45;;;;;;;17.73;16.33;;;1.10;1.00;;;;;;5000717;28;20189;-52
2024/01/21 08:35:10;;;;;;;18.57;16.87;;;1.60;1.00;;;;;;5005731;28;20245;-54
2024/01/21 08:37:36;;;;;;;18.27;16.80;;;2.10;1.00;;;;;;5010484;28;20192;-52
2024/01/21 08:40:04;;;;;;;16.65;15.18;;;2.20;1.00;;;;;;5008088;28;20198;-57
2024/01/21 08:42:29;;;;;;;16.55;15.13;;;2.10;99.90;;;;;;5004616;28;20183;-56
2024/01/21 08:44:55;;;;;;;16.97;15.57;;;2.10;99.90;;;;;;5004080;28;20709;-58
2024/01/21 08:47:21;;;;;;;17.50;16.00;;;2.00;99.90;;;;;;5008057;28;20195;-41
2024/01/21 08:49:47;;;;;;;19.30;17.50;;;1.90;99.90;;;;;;5015124;28;20205;-56
2024/01/21 08:52:12;;;;;;;17.30;15.80;;;1.90;99.90;;;;;;5007558;28;20293;-58
2024/01/21 08:54:38;;;;;;;17.97;16.47;;;2.00;99.90;;;;;;5009075;28;20272;-58
2024/01/21 08:57:04;;;;;;;17.55;16.02;;;2.20;99.90;;;;;;5003650;28;20184;-56
2024/01/21 08:59:30;;;;;;;17.93;16.23;;;2.50;99.90;;;;;;5004680;28;20191;-60
2024/01/21 09:01:56;;;;;;;15.23;13.80;;;2.70;99.90;;;;;;5009478;28;20222;-58
2024/01/21 09:04:22;;;;;;;17.17;15.50;;;2.70;99.90;;;;;;4985380;28;21182;-58
2024/01/21 09:06:47;;;;;;;17.40;15.87;;;2.80;99.90;;;;;;5003347;28;20190;-56
2024/01/21 09:09:13;;;;;;;18.20;16.67;;;2.90;99.90;;;;;;5000580;28;20269;-57
2024/01/21 09:11:39;;;;;;;16.17;14.83;;;3.30;99.90;;;;;;5004078;28;20540;-58
2024/01/21 09:14:06;;;;;;;17.25;15.90;;;3.40;99.90;;;;;;5005627;28;20190;-55
2024/01/21 09:16:32;;;;;;;17.33;15.93;;;3.20;99.90;;;;;;5004836;28;20172;-57
2024/01/21 09:18:58;;;;;;;16.13;14.65;;;2.90;99.90;;;;;;5016969;28;20683;-53
2024/01/21 09:21:24;;;;;;;16.80;15.50;;;2.80;99.90;;;;;;5021200;28;20190;-56
2024/01/21 09:23:50;;;;;;;15.70;14.50;;;2.80;99.90;;;;;;5020302;28;20425;-57
2024/01/21 09:26:15;;;;;;;14.75;13.45;;;2.80;99.90;;;;;;5021950;28;20549;-58
2024/01/21 09:28:43;;;;;;;16.07;14.80;;;2.80;99.90;;;;;;5019790;28;20217;-54
2024/01/21 09:31:09;;;;;;;15.20;14.10;;;2.90;99.90;;;;;;5020815;28;20193;-57
2024/01/21 09:33:35;;;;;;;15.57;14.33;;;2.80;99.90;;;;;;5020323;28;20575;-56
2024/01/21 09:36:01;;;;;;;16.33;15.13;;;2.90;99.90;;;;;;5020195;28;20186;-55
2024/01/21 09:38:27;;;;;;;16.33;14.97;;;3.20;99.90;;;;;;5020185;28;20194;-56
2024/01/21 09:41:12;;;;;;;15.83;14.13;;;3.70;99.90;;;;;;5018303;28;20194;-56
2024/01/21 09:43:42;;;;;;;15.40;14.10;;;4.30;99.90;;;;;;5019284;28;20186;-50
2024/01/21 09:46:10;;;;;;;15.95;14.65;;;4.50;99.90;;;;;;5018261;28;20244;-55
2024/01/21 09:48:36;;;;;;;16.25;14.95;;;4.70;99.90;;;;;;5018541;28;20205;-57
2024/01/21 09:51:04;;;;;;;16.40;15.00;;;4.50;99.90;;;;;;5017883;28;20190;-54
2024/01/21 09:53:30;;;;;;;15.82;14.50;;;4.40;99.90;;;;;;5018572;28;20497;-51
2024/01/21 09:55:58;;;;;;;16.07;14.77;;;4.30;99.90;;;;;;5018827;28;20187;-55
2024/01/21 09:58:26;;;;;;;17.05;15.65;;;4.00;99.90;;;;;;5019512;28;20166;-53
2024/01/21 10:00:52;;;;;;;17.10;15.25;;;4.00;99.90;;;;;;5019204;28;20963;-54
2024/01/21 10:03:18;;;;;;;15.70;14.27;;;4.00;99.90;;;;;;5015683;28;20187;-58
2024/01/21 10:05:44;;;;;;;16.27;14.97;;;3.90;99.90;;;;;;5018421;28;20248;-54
2024/01/21 10:08:10;;;;;;;16.67;15.27;;;3.70;99.90;;;;;;5019904;28;20213;-55
2024/01/21 10:10:36;;;;;;;17.42;15.82;;;3.60;99.90;;;;;;5019913;28;20679;-58
2024/01/21 10:13:05;;;;;;;16.90;15.40;;;3.50;99.90;;;;;;5020044;28;20203;-55
2024/01/21 10:15:30;;;;;;;16.10;14.90;;;3.40;99.90;;;;;;5002956;28;20193;-57
2024/01/21 10:17:56;;;;;;;16.30;14.87;;;3.40;99.90;;;;;;5020466;28;20712;-57
2024/01/21 10:20:22;;;;;;;17.13;15.73;;;3.20;99.90;;;;;;5018283;28;20608;-54
2024/01/21 10:22:48;;;;;;;16.75;15.35;;;3.20;99.90;;;;;;5017166;28;20236;-41
2024/01/21 10:25:14;;;;;;;15.20;14.10;;;3.20;99.90;;;;;;5017945;28;20257;-41
2024/01/21 10:27:40;;;;;;;15.95;14.75;;;3.30;99.90;;;;;;5019209;28;20189;-43
2024/01/21 10:30:08;;;;;;;16.38;14.93;;;3.40;99.90;;;;;;5020049;28;20560;-40
2024/01/21 10:32:34;;;;;;;15.60;14.30;;;3.50;99.90;;;;;;5020316;28;20178;-40
2024/01/21 10:35:00;;;;;;;15.77;14.50;;;3.70;99.90;;;;;;5018845;28;20253;-38
2024/01/21 10:37:28;;;;;;;14.80;13.70;;;3.60;99.90;;;;;;5019640;28;20345;-39
2024/01/21 10:39:55;;;;;;;15.88;14.70;;;3.60;99.90;;;;;;5020237;28;20167;-39
2024/01/21 10:42:21;;;;;;;15.60;14.23;;;3.60;99.90;;;;;;5020187;28;20243;-40
2024/01/21 10:44:47;;;;;;;16.90;15.55;;;3.70;99.90;;;;;;5019741;28;20194;-38
2024/01/21 10:47:14;;;;;;;16.05;14.85;;;3.70;99.90;;;;;;5020187;28;21253;-38
2024/01/21 10:49:40;;;;;;;16.80;15.30;;;3.90;99.90;;;;;;5018956;28;20660;-41
2024/01/21 10:52:09;;;;;;;17.40;16.00;;;4.10;99.90;;;;;;5019867;28;20652;-38
2024/01/21 10:54:37;;;;;;;16.23;14.82;;;4.30;99.90;;;;;;5018480;28;20182;-38
2024/01/21 10:57:04;;;;;;;16.33;15.02;;;4.20;99.90;;;;;;5019598;28;20288;-39
2024/01/21 10:59:31;;;;;;;15.77;14.68;;;4.20;99.90;;;;;;5020205;28;20185;-39
2024/01/21 11:01:57;;;;;;;15.95;14.68;;;4.20;99.90;;;;;;5018442;28;20995;-42
2024/01/21 11:04:22;;;;;;;16.73;15.37;;;4.30;99.90;;;;;;5019163;28;20212;-40
2024/01/21 11:06:50;;;;;;;16.90;15.60;;;4.20;99.90;;;;;;5018001;28;20178;-42
2024/01/21 11:09:21;;;;;;;17.58;16.05;;;4.20;99.90;;;;;;5001200;28;20202;-40
2024/01/21 11:11:49;;;;;;;17.00;15.60;;;4.00;99.90;;;;;;5019244;28;20171;-40
2024/01/21 11:14:33;;;;;;;17.80;16.15;;;3.80;99.90;;;;;;5019574;28;21223;-40
2024/01/21 11:17:07;;;;;;;17.27;15.98;;;3.70;99.90;;;;;;5018797;28;20178;-41
2024/01/21 11:19:48;;;;;;;16.67;15.38;;;3.70;99.90;;;;;;5019245;28;20272;-41
2024/01/21 11:22:14;;;;;;;16.42;15.00;;;3.50;99.90;;;;;;5019039;28;20192;-42
2024/01/21 11:24:41;;;;;;;15.73;14.52;;;3.50;99.90;;;;;;5019962;28;20232;-57
2024/01/21 11:27:24;;;;;;;16.92;15.50;;;3.50;99.90;;;;;;5018639;28;20186;-48
2024/01/21 11:29:55;;;;;;;17.30;15.95;;;3.30;99.90;;;;;;5020039;28;20248;-57
2024/01/21 11:32:31;;;;;;;17.30;15.75;;;3.40;99.90;;;;;;5001629;28;20305;-54
2024/01/21 11:35:08;;;;;;;16.38;14.98;;;3.30;99.90;;;;;;5018985;28;20182;-55
2024/01/21 11:37:34;;;;;;;16.90;15.60;;;3.30;99.90;;;;;;5019840;28;20231;-53
2024/01/21 11:40:03;;;;;;;18.02;16.52;;;3.40;99.90;;;;;;5020196;28;20179;-51
2024/01/21 11:42:32;;;;;;;16.75;15.35;;;3.30;99.90;;;;;;5018593;28;20253;-57
2024/01/21 11:45:03;;;;;;;15.00;13.80;;;3.30;99.90;;;;;;5019726;28;20178;-57
2024/01/21 11:47:28;;;;;;;15.20;13.98;;;3.40;99.90;;;;;;5017429;28;21471;-58
2024/01/21 11:49:54;;;;;;;16.37;14.97;;;3.60;99.90;;;;;;5019836;28;20199;-53
2024/01/21 11:52:20;;;;;;;16.73;15.30;;;3.60;99.90;;;;;;5020059;28;20197;-52
2024/01/21 11:54:48;;;;;;;16.73;15.43;;;3.60;99.90;;;;;;5019854;28;20751;-59
2024/01/21 11:57:14;;;;;;;15.45;14.20;;;3.60;99.90;;;;;;5019132;28;20183;-57
2024/01/21 11:59:39;;;;;;;16.98;15.30;;;3.60;99.90;;;;;;5019628;28;20182;-56
2024/01/21 12:02:08;;;;;;;17.20;15.60;;;3.60;99.90;;;;;;5020131;28;20182;-53
2024/01/21 12:04:34;;;;;;;18.02;16.50;;;3.50;99.90;;;;;;5019460;28;20421;-57
2024/01/21 12:07:00;;;;;;;17.03;15.50;;;3.40;99.90;;;;;;5021658;28;20200;-53
2024/01/21 12:09:26;;;;;;;16.73;15.38;;;3.30;99.90;;;;;;5005361;28;20280;-57
2024/01/21 12:11:52;;;;;;;15.60;14.40;;;3.40;99.90;;;;;;5023049;28;20689;-51
2024/01/21 12:14:20;;;;;;;16.73;15.30;;;3.50;99.90;;;;;;5023192;28;20411;-57
2024/01/21 12:16:51;;;;;;;16.77;15.57;;;3.50;99.90;;;;;;5022275;28;20433;-55
2024/01/21 12:19:16;;;;;;;16.25;14.70;;;3.60;99.90;;;;;;5004951;28;20303;-55
2024/01/21 12:21:43;;;;;;;15.47;14.17;;;3.60;99.90;;;;;;5017051;28;20305;-54
2024/01/21 12:24:09;;;;;;;15.90;14.88;;;3.60;99.90;;;;;;5010953;28;20909;-38
2024/01/21 12:26:35;;;;;;;15.17;14.07;;;3.70;99.90;;;;;;5015752;28;20198;-41
2024/01/21 12:29:05;;;;;;;15.80;14.40;;;3.70;99.90;;;;;;5014547;28;20930;-38